sensor_id;sensor_type;location;lat;lon;timestamp;P1;durP1;ratioP1;P2;durP2;ratioP2
71087;SDS011;58747;50.674;4.616;2023-02-01T00:00:02;25.87;;;12.10;;
71087;SDS011;58747;50.674;4.616;2023-02-01T00:02:28;25.17;;;13.25;;
71087;SDS011;58747;50.674;4.616;2023-02-01T00:04:54;32.40;;;13.10;;
71087;SDS011;58747;50.674;4.616;2023-02-01T00:07:19;28.07;;;14.43;;
71087;SDS011;58747;50.674;4.616;2023-02-01T00:09:45;27.97;;;11.90;;
71087;SDS011;58747;50.674;4.616;2023-02-01T00:12:10;21.47;;;12.90;;
71087;SDS011;58747;50.674;4.616;2023-02-01T00:14:35;27.70;;;11.30;;
71087;SDS011;58747;50.674;4.616;2023-02-01T00:17:06;27.92;;;12.95;;
71087;SDS011;58747;50.674;4.616;2023-02-01T00:19:32;32.78;;;12.50;;
71087;SDS011;58747;50.674;4.616;2023-02-01T00:21:58;31.67;;;12.35;;
71087;SDS011;58747;50.674;4.616;2023-02-01T00:24:23;29.37;;;12.40;;
71087;SDS011;58747;50.674;4.616;2023-02-01T00:26:49;27.83;;;12.63;;
71087;SDS011;58747;50.674;4.616;2023-02-01T00:29:15;25.97;;;12.53;;
71087;SDS011;58747;50.674;4.616;2023-02-01T00:31:42;26.10;;;10.98;;
71087;SDS011;58747;50.674;4.616;2023-02-01T00:34:09;25.50;;;12.07;;
71087;SDS011;58747;50.674;4.616;2023-02-01T00:36:37;28.70;;;11.60;;
71087;SDS011;58747;50.674;4.616;2023-02-01T00:39:02;27.02;;;10.45;;
71087;SDS011;58747;50.674;4.616;2023-02-01T00:41:27;23.90;;;11.50;;
71087;SDS011;58747;50.674;4.616;2023-02-01T00:43:53;28.60;;;11.30;;
71087;SDS011;58747;50.674;4.616;2023-02-01T00:46:19;22.00;;;10.77;;
71087;SDS011;58747;50.674;4.616;2023-02-01T00:48:46;18.50;;;9.65;;
71087;SDS011;58747;50.674;4.616;2023-02-01T00:51:14;24.30;;;10.85;;
71087;SDS011;58747;50.674;4.616;2023-02-01T00:53:40;34.30;;;12.13;;
71087;SDS011;58747;50.674;4.616;2023-02-01T00:56:06;23.85;;;10.55;;
71087;SDS011;58747;50.674;4.616;2023-02-01T00:58:32;17.98;;;9.32;;
71087;SDS011;58747;50.674;4.616;2023-02-01T01:03:35;20.13;;;7.55;;
71087;SDS011;58747;50.674;4.616;2023-02-01T01:06:06;22.45;;;9.57;;
71087;SDS011;58747;50.674;4.616;2023-02-01T01:08:37;22.63;;;8.43;;
71087;SDS011;58747;50.674;4.616;2023-02-01T01:11:04;23.00;;;7.72;;
71087;SDS011;58747;50.674;4.616;2023-02-01T01:13:31;23.75;;;8.40;;
71087;SDS011;58747;50.674;4.616;2023-02-01T01:15:59;18.60;;;6.60;;
71087;SDS011;58747;50.674;4.616;2023-02-01T01:18:27;14.35;;;6.43;;
71087;SDS011;58747;50.674;4.616;2023-02-01T01:20:53;20.60;;;6.45;;
71087;SDS011;58747;50.674;4.616;2023-02-01T01:23:18;15.70;;;5.60;;
71087;SDS011;58747;50.674;4.616;2023-02-01T01:25:43;18.07;;;4.87;;
71087;SDS011;58747;50.674;4.616;2023-02-01T01:28:09;19.10;;;6.33;;
71087;SDS011;58747;50.674;4.616;2023-02-01T01:30:34;16.13;;;5.43;;
71087;SDS011;58747;50.674;4.616;2023-02-01T01:33:00;13.47;;;3.93;;
71087;SDS011;58747;50.674;4.616;2023-02-01T01:35:25;13.32;;;5.20;;
71087;SDS011;58747;50.674;4.616;2023-02-01T01:37:51;14.50;;;5.10;;
71087;SDS011;58747;50.674;4.616;2023-02-01T01:40:16;13.20;;;4.20;;
71087;SDS011;58747;50.674;4.616;2023-02-01T01:42:42;15.03;;;5.63;;
71087;SDS011;58747;50.674;4.616;2023-02-01T01:45:28;11.27;;;3.75;;
71087;SDS011;58747;50.674;4.616;2023-02-01T01:47:58;14.48;;;4.43;;
71087;SDS011;58747;50.674;4.616;2023-02-01T01:50:29;15.80;;;4.20;;
71087;SDS011;58747;50.674;4.616;2023-02-01T01:52:57;18.50;;;5.00;;
71087;SDS011;58747;50.674;4.616;2023-02-01T01:55:25;12.05;;;3.95;;
71087;SDS011;58747;50.674;4.616;2023-02-01T01:57:56;12.48;;;3.50;;
71087;SDS011;58747;50.674;4.616;2023-02-01T02:00:25;9.13;;;2.70;;
71087;SDS011;58747;50.674;4.616;2023-02-01T02:02:53;9.70;;;2.80;;
71087;SDS011;58747;50.674;4.616;2023-02-01T02:05:21;14.90;;;2.90;;
71087;SDS011;58747;50.674;4.616;2023-02-01T02:07:48;15.40;;;3.25;;
71087;SDS011;58747;50.674;4.616;2023-02-01T02:10:14;17.83;;;3.30;;
71087;SDS011;58747;50.674;4.616;2023-02-01T02:12:41;14.97;;;3.27;;
71087;SDS011;58747;50.674;4.616;2023-02-01T02:15:09;20.35;;;3.78;;
71087;SDS011;58747;50.674;4.616;2023-02-01T02:17:43;14.20;;;4.10;;
71087;SDS011;58747;50.674;4.616;2023-02-01T02:32:02;15.02;;;3.45;;
71087;SDS011;58747;50.674;4.616;2023-02-01T02:34:46;14.80;;;3.47;;
71087;SDS011;58747;50.674;4.616;2023-02-01T02:37:29;11.50;;;3.42;;
71087;SDS011;58747;50.674;4.616;2023-02-01T02:40:03;16.57;;;3.83;;
71087;SDS011;58747;50.674;4.616;2023-02-01T02:45:37;10.32;;;3.90;;
71087;SDS011;58747;50.674;4.616;2023-02-01T02:50:58;12.45;;;2.60;;
71087;SDS011;58747;50.674;4.616;2023-02-01T02:53:50;11.33;;;3.27;;
71087;SDS011;58747;50.674;4.616;2023-02-01T02:56:39;15.13;;;3.75;;
71087;SDS011;58747;50.674;4.616;2023-02-01T02:59:24;14.07;;;2.92;;
71087;SDS011;58747;50.674;4.616;2023-02-01T03:02:10;17.58;;;3.03;;
71087;SDS011;58747;50.674;4.616;2023-02-01T03:04:56;11.98;;;3.70;;
71087;SDS011;58747;50.674;4.616;2023-02-01T03:10:23;12.02;;;3.53;;
71087;SDS011;58747;50.674;4.616;2023-02-01T03:13:04;9.67;;;2.70;;
71087;SDS011;58747;50.674;4.616;2023-02-01T03:16:16;15.85;;;3.95;;
71087;SDS011;58747;50.674;4.616;2023-02-01T03:18:42;12.45;;;2.67;;
71087;SDS011;58747;50.674;4.616;2023-02-01T03:21:22;7.70;;;2.83;;
71087;SDS011;58747;50.674;4.616;2023-02-01T03:23:51;12.45;;;2.80;;
71087;SDS011;58747;50.674;4.616;2023-02-01T03:26:20;8.63;;;2.43;;
71087;SDS011;58747;50.674;4.616;2023-02-01T03:28:54;11.43;;;2.72;;
71087;SDS011;58747;50.674;4.616;2023-02-01T03:31:25;17.65;;;4.28;;
71087;SDS011;58747;50.674;4.616;2023-02-01T03:33:52;14.48;;;3.10;;
71087;SDS011;58747;50.674;4.616;2023-02-01T03:41:26;13.90;;;2.77;;
71087;SDS011;58747;50.674;4.616;2023-02-01T03:43:58;12.43;;;2.38;;
71087;SDS011;58747;50.674;4.616;2023-02-01T03:46:40;12.98;;;2.95;;
71087;SDS011;58747;50.674;4.616;2023-02-01T03:49:11;10.63;;;2.70;;
71087;SDS011;58747;50.674;4.616;2023-02-01T03:51:42;10.65;;;3.25;;
71087;SDS011;58747;50.674;4.616;2023-02-01T03:54:09;10.23;;;3.53;;
71087;SDS011;58747;50.674;4.616;2023-02-01T03:56:38;14.20;;;2.55;;
71087;SDS011;58747;50.674;4.616;2023-02-01T03:59:09;13.35;;;3.20;;
71087;SDS011;58747;50.674;4.616;2023-02-01T04:01:35;9.27;;;3.58;;
71087;SDS011;58747;50.674;4.616;2023-02-01T04:04:00;17.10;;;3.70;;
71087;SDS011;58747;50.674;4.616;2023-02-01T04:06:26;14.70;;;3.23;;
71087;SDS011;58747;50.674;4.616;2023-02-01T04:08:51;7.73;;;2.17;;
71087;SDS011;58747;50.674;4.616;2023-02-01T04:11:17;10.18;;;2.83;;
71087;SDS011;58747;50.674;4.616;2023-02-01T04:13:43;10.17;;;1.97;;
71087;SDS011;58747;50.674;4.616;2023-02-01T04:16:08;15.57;;;2.40;;
71087;SDS011;58747;50.674;4.616;2023-02-01T04:18:33;16.50;;;3.10;;
71087;SDS011;58747;50.674;4.616;2023-02-01T04:20:59;13.73;;;2.50;;
71087;SDS011;58747;50.674;4.616;2023-02-01T04:23:27;15.30;;;3.83;;
71087;SDS011;58747;50.674;4.616;2023-02-01T04:25:52;13.50;;;2.50;;
71087;SDS011;58747;50.674;4.616;2023-02-01T04:28:18;7.97;;;2.37;;
71087;SDS011;58747;50.674;4.616;2023-02-01T04:30:43;14.60;;;2.90;;
71087;SDS011;58747;50.674;4.616;2023-02-01T04:33:09;10.43;;;1.98;;
71087;SDS011;58747;50.674;4.616;2023-02-01T04:35:34;19.87;;;3.27;;
71087;SDS011;58747;50.674;4.616;2023-02-01T04:37:59;9.97;;;3.30;;
71087;SDS011;58747;50.674;4.616;2023-02-01T04:40:25;18.15;;;2.38;;
71087;SDS011;58747;50.674;4.616;2023-02-01T04:42:50;12.40;;;2.47;;
71087;SDS011;58747;50.674;4.616;2023-02-01T04:45:16;14.20;;;3.20;;
71087;SDS011;58747;50.674;4.616;2023-02-01T04:47:41;15.07;;;2.77;;
71087;SDS011;58747;50.674;4.616;2023-02-01T04:50:07;17.23;;;2.60;;
71087;SDS011;58747;50.674;4.616;2023-02-01T04:52:35;9.32;;;2.00;;
71087;SDS011;58747;50.674;4.616;2023-02-01T04:55:01;15.20;;;2.75;;
71087;SDS011;58747;50.674;4.616;2023-02-01T04:57:27;10.02;;;2.03;;
71087;SDS011;58747;50.674;4.616;2023-02-01T04:59:53;12.77;;;2.27;;
71087;SDS011;58747;50.674;4.616;2023-02-01T05:02:18;16.20;;;2.10;;
71087;SDS011;58747;50.674;4.616;2023-02-01T05:04:43;7.83;;;2.27;;
71087;SDS011;58747;50.674;4.616;2023-02-01T05:07:09;9.93;;;2.10;;
71087;SDS011;58747;50.674;4.616;2023-02-01T05:09:34;12.87;;;2.30;;
71087;SDS011;58747;50.674;4.616;2023-02-01T05:11:59;13.57;;;2.47;;
71087;SDS011;58747;50.674;4.616;2023-02-01T05:14:43;11.80;;;2.20;;
71087;SDS011;58747;50.674;4.616;2023-02-01T05:17:09;9.80;;;1.65;;
71087;SDS011;58747;50.674;4.616;2023-02-01T05:19:34;13.50;;;2.40;;
71087;SDS011;58747;50.674;4.616;2023-02-01T05:21:59;11.50;;;2.30;;
71087;SDS011;58747;50.674;4.616;2023-02-01T05:24:25;11.03;;;2.50;;
71087;SDS011;58747;50.674;4.616;2023-02-01T05:26:52;8.10;;;1.88;;
71087;SDS011;58747;50.674;4.616;2023-02-01T05:29:17;15.50;;;2.53;;
71087;SDS011;58747;50.674;4.616;2023-02-01T05:31:46;12.55;;;2.53;;
71087;SDS011;58747;50.674;4.616;2023-02-01T05:34:12;8.23;;;2.10;;
71087;SDS011;58747;50.674;4.616;2023-02-01T05:36:38;13.48;;;2.97;;
71087;SDS011;58747;50.674;4.616;2023-02-01T05:39:04;8.82;;;2.33;;
71087;SDS011;58747;50.674;4.616;2023-02-01T05:41:29;10.13;;;2.57;;
71087;SDS011;58747;50.674;4.616;2023-02-01T05:43:55;9.73;;;2.27;;
71087;SDS011;58747;50.674;4.616;2023-02-01T05:46:20;11.47;;;3.07;;
71087;SDS011;58747;50.674;4.616;2023-02-01T05:48:45;19.73;;;2.57;;
71087;SDS011;58747;50.674;4.616;2023-02-01T05:51:11;14.43;;;1.92;;
71087;SDS011;58747;50.674;4.616;2023-02-01T05:53:36;22.13;;;3.30;;
71087;SDS011;58747;50.674;4.616;2023-02-01T05:56:02;14.77;;;3.70;;
71087;SDS011;58747;50.674;4.616;2023-02-01T05:58:28;14.93;;;2.47;;
71087;SDS011;58747;50.674;4.616;2023-02-01T06:00:54;15.40;;;2.80;;
71087;SDS011;58747;50.674;4.616;2023-02-01T06:03:19;19.07;;;2.80;;
71087;SDS011;58747;50.674;4.616;2023-02-01T06:05:45;11.10;;;2.47;;
71087;SDS011;58747;50.674;4.616;2023-02-01T06:08:11;13.02;;;2.83;;
71087;SDS011;58747;50.674;4.616;2023-02-01T06:10:37;13.55;;;2.22;;
71087;SDS011;58747;50.674;4.616;2023-02-01T06:13:03;12.37;;;2.57;;
71087;SDS011;58747;50.674;4.616;2023-02-01T06:15:29;13.05;;;2.65;;
71087;SDS011;58747;50.674;4.616;2023-02-01T06:17:55;15.37;;;2.60;;
71087;SDS011;58747;50.674;4.616;2023-02-01T06:20:20;11.53;;;2.23;;
71087;SDS011;58747;50.674;4.616;2023-02-01T06:22:46;10.27;;;2.58;;
71087;SDS011;58747;50.674;4.616;2023-02-01T06:25:11;6.63;;;1.47;;
71087;SDS011;58747;50.674;4.616;2023-02-01T06:27:36;12.02;;;2.50;;
71087;SDS011;58747;50.674;4.616;2023-02-01T06:30:02;14.82;;;2.58;;
71087;SDS011;58747;50.674;4.616;2023-02-01T06:32:29;9.75;;;1.98;;
71087;SDS011;58747;50.674;4.616;2023-02-01T06:34:54;15.53;;;2.67;;
71087;SDS011;58747;50.674;4.616;2023-02-01T06:37:21;12.70;;;2.87;;
71087;SDS011;58747;50.674;4.616;2023-02-01T06:39:47;11.93;;;2.30;;
71087;SDS011;58747;50.674;4.616;2023-02-01T06:42:13;13.75;;;3.42;;
71087;SDS011;58747;50.674;4.616;2023-02-01T06:44:38;11.27;;;3.25;;
71087;SDS011;58747;50.674;4.616;2023-02-01T06:47:04;11.37;;;2.50;;
71087;SDS011;58747;50.674;4.616;2023-02-01T06:49:29;14.23;;;3.73;;
71087;SDS011;58747;50.674;4.616;2023-02-01T06:51:55;21.67;;;2.72;;
71087;SDS011;58747;50.674;4.616;2023-02-01T06:54:20;14.60;;;2.80;;
71087;SDS011;58747;50.674;4.616;2023-02-01T06:56:46;9.63;;;2.90;;
71087;SDS011;58747;50.674;4.616;2023-02-01T06:59:11;7.97;;;2.93;;
71087;SDS011;58747;50.674;4.616;2023-02-01T07:01:38;17.13;;;2.90;;
71087;SDS011;58747;50.674;4.616;2023-02-01T07:04:03;19.75;;;4.68;;
71087;SDS011;58747;50.674;4.616;2023-02-01T07:06:29;16.67;;;2.73;;
71087;SDS011;58747;50.674;4.616;2023-02-01T07:08:54;10.60;;;2.97;;
71087;SDS011;58747;50.674;4.616;2023-02-01T07:11:21;12.48;;;2.90;;
71087;SDS011;58747;50.674;4.616;2023-02-01T07:13:46;11.60;;;2.30;;
71087;SDS011;58747;50.674;4.616;2023-02-01T07:16:13;9.67;;;2.90;;
71087;SDS011;58747;50.674;4.616;2023-02-01T07:18:43;20.05;;;3.45;;
71087;SDS011;58747;50.674;4.616;2023-02-01T07:21:08;15.00;;;3.45;;
71087;SDS011;58747;50.674;4.616;2023-02-01T07:23:34;15.57;;;2.93;;
71087;SDS011;58747;50.674;4.616;2023-02-01T07:26:01;14.82;;;2.47;;
71087;SDS011;58747;50.674;4.616;2023-02-01T07:28:28;12.90;;;2.67;;
71087;SDS011;58747;50.674;4.616;2023-02-01T07:30:56;12.52;;;3.28;;
71087;SDS011;58747;50.674;4.616;2023-02-01T07:33:27;17.42;;;3.38;;
71087;SDS011;58747;50.674;4.616;2023-02-01T07:35:52;12.33;;;3.00;;
71087;SDS011;58747;50.674;4.616;2023-02-01T07:38:18;11.77;;;3.23;;
71087;SDS011;58747;50.674;4.616;2023-02-01T07:40:44;15.18;;;3.10;;
71087;SDS011;58747;50.674;4.616;2023-02-01T07:43:09;24.40;;;7.10;;
71087;SDS011;58747;50.674;4.616;2023-02-01T07:45:35;13.70;;;3.00;;
71087;SDS011;58747;50.674;4.616;2023-02-01T07:48:01;9.95;;;4.45;;
71087;SDS011;58747;50.674;4.616;2023-02-01T07:50:28;19.83;;;3.67;;
71087;SDS011;58747;50.674;4.616;2023-02-01T07:52:53;11.20;;;3.65;;
71087;SDS011;58747;50.674;4.616;2023-02-01T07:55:21;13.27;;;3.65;;
71087;SDS011;58747;50.674;4.616;2023-02-01T07:57:47;10.80;;;3.70;;
71087;SDS011;58747;50.674;4.616;2023-02-01T08:00:12;22.02;;;4.30;;
71087;SDS011;58747;50.674;4.616;2023-02-01T08:02:57;14.50;;;3.10;;
71087;SDS011;58747;50.674;4.616;2023-02-01T08:05:23;13.27;;;2.97;;
71087;SDS011;58747;50.674;4.616;2023-02-01T08:07:49;11.80;;;3.43;;
71087;SDS011;58747;50.674;4.616;2023-02-01T08:10:15;13.23;;;3.53;;
71087;SDS011;58747;50.674;4.616;2023-02-01T08:12:41;14.60;;;2.85;;
71087;SDS011;58747;50.674;4.616;2023-02-01T08:15:06;26.07;;;6.53;;
71087;SDS011;58747;50.674;4.616;2023-02-01T08:17:32;12.93;;;2.97;;
71087;SDS011;58747;50.674;4.616;2023-02-01T08:19:57;19.17;;;2.80;;
71087;SDS011;58747;50.674;4.616;2023-02-01T08:22:23;22.20;;;4.50;;
71087;SDS011;58747;50.674;4.616;2023-02-01T08:24:48;11.73;;;3.67;;
71087;SDS011;58747;50.674;4.616;2023-02-01T08:27:13;15.67;;;2.10;;
71087;SDS011;58747;50.674;4.616;2023-02-01T08:29:39;18.77;;;4.47;;
71087;SDS011;58747;50.674;4.616;2023-02-01T08:32:04;9.47;;;3.40;;
71087;SDS011;58747;50.674;4.616;2023-02-01T08:34:30;15.87;;;3.43;;
71087;SDS011;58747;50.674;4.616;2023-02-01T08:36:55;11.33;;;2.63;;
71087;SDS011;58747;50.674;4.616;2023-02-01T08:39:24;11.88;;;2.85;;
71087;SDS011;58747;50.674;4.616;2023-02-01T08:41:49;11.13;;;2.70;;
71087;SDS011;58747;50.674;4.616;2023-02-01T08:44:35;15.98;;;3.33;;
71087;SDS011;58747;50.674;4.616;2023-02-01T08:47:01;12.27;;;2.80;;
71087;SDS011;58747;50.674;4.616;2023-02-01T08:49:27;15.90;;;3.47;;
71087;SDS011;58747;50.674;4.616;2023-02-01T08:51:53;13.67;;;2.63;;
71087;SDS011;58747;50.674;4.616;2023-02-01T08:54:18;13.90;;;3.65;;
71087;SDS011;58747;50.674;4.616;2023-02-01T08:56:43;5.80;;;2.10;;
71087;SDS011;58747;50.674;4.616;2023-02-01T08:59:09;12.73;;;2.23;;
71087;SDS011;58747;50.674;4.616;2023-02-01T09:01:34;13.67;;;2.53;;
71087;SDS011;58747;50.674;4.616;2023-02-01T09:03:59;12.40;;;2.40;;
71087;SDS011;58747;50.674;4.616;2023-02-01T09:06:25;7.03;;;2.07;;
71087;SDS011;58747;50.674;4.616;2023-02-01T09:08:50;13.17;;;2.40;;
71087;SDS011;58747;50.674;4.616;2023-02-01T09:11:16;12.25;;;3.45;;
71087;SDS011;58747;50.674;4.616;2023-02-01T09:13:44;10.38;;;2.78;;
71087;SDS011;58747;50.674;4.616;2023-02-01T09:16:10;9.70;;;2.58;;
71087;SDS011;58747;50.674;4.616;2023-02-01T09:18:35;11.37;;;2.60;;
71087;SDS011;58747;50.674;4.616;2023-02-01T09:21:04;12.77;;;1.93;;
71087;SDS011;58747;50.674;4.616;2023-02-01T09:23:31;13.18;;;2.90;;
71087;SDS011;58747;50.674;4.616;2023-02-01T09:26:03;9.03;;;2.67;;
71087;SDS011;58747;50.674;4.616;2023-02-01T09:28:29;16.17;;;2.95;;
71087;SDS011;58747;50.674;4.616;2023-02-01T09:30:56;13.27;;;3.85;;
71087;SDS011;58747;50.674;4.616;2023-02-01T09:33:22;12.07;;;3.67;;
71087;SDS011;58747;50.674;4.616;2023-02-01T09:35:49;12.10;;;2.72;;
71087;SDS011;58747;50.674;4.616;2023-02-01T09:38:14;7.45;;;2.13;;
71087;SDS011;58747;50.674;4.616;2023-02-01T09:40:41;18.80;;;3.60;;
71087;SDS011;58747;50.674;4.616;2023-02-01T09:48:20;16.10;;;2.92;;
71087;SDS011;58747;50.674;4.616;2023-02-01T09:50:56;12.50;;;2.17;;
71087;SDS011;58747;50.674;4.616;2023-02-01T09:53:25;8.80;;;3.08;;
71087;SDS011;58747;50.674;4.616;2023-02-01T09:56:05;6.82;;;2.20;;
71087;SDS011;58747;50.674;4.616;2023-02-01T09:58:35;12.70;;;2.50;;
71087;SDS011;58747;50.674;4.616;2023-02-01T10:01:04;13.50;;;3.13;;
71087;SDS011;58747;50.674;4.616;2023-02-01T10:03:35;22.50;;;4.25;;
71087;SDS011;58747;50.674;4.616;2023-02-01T10:11:17;18.95;;;3.53;;
71087;SDS011;58747;50.674;4.616;2023-02-01T10:16:56;7.93;;;1.80;;
71087;SDS011;58747;50.674;4.616;2023-02-01T10:19:56;10.00;;;2.58;;
71087;SDS011;58747;50.674;4.616;2023-02-01T10:22:36;11.05;;;2.35;;
71087;SDS011;58747;50.674;4.616;2023-02-01T10:27:49;15.88;;;2.63;;
71087;SDS011;58747;50.674;4.616;2023-02-01T10:30:21;13.20;;;2.40;;
71087;SDS011;58747;50.674;4.616;2023-02-01T10:32:48;7.57;;;2.30;;
71087;SDS011;58747;50.674;4.616;2023-02-01T10:35:27;9.98;;;2.28;;
71087;SDS011;58747;50.674;4.616;2023-02-01T10:37:54;11.60;;;2.53;;
71087;SDS011;58747;50.674;4.616;2023-02-01T10:40:22;13.63;;;2.72;;
71087;SDS011;58747;50.674;4.616;2023-02-01T10:42:52;6.60;;;2.60;;
71087;SDS011;58747;50.674;4.616;2023-02-01T10:45:20;15.27;;;2.38;;
71087;SDS011;58747;50.674;4.616;2023-02-01T10:47:48;8.98;;;2.33;;
71087;SDS011;58747;50.674;4.616;2023-02-01T10:50:24;12.70;;;2.53;;
71087;SDS011;58747;50.674;4.616;2023-02-01T10:52:58;14.07;;;3.50;;
71087;SDS011;58747;50.674;4.616;2023-02-01T10:55:40;4.53;;;2.88;;
71087;SDS011;58747;50.674;4.616;2023-02-01T10:58:18;9.52;;;3.33;;
71087;SDS011;58747;50.674;4.616;2023-02-01T11:09:00;12.38;;;3.70;;
71087;SDS011;58747;50.674;4.616;2023-02-01T11:14:15;9.82;;;2.65;;
71087;SDS011;58747;50.674;4.616;2023-02-01T11:16:55;8.63;;;2.97;;
71087;SDS011;58747;50.674;4.616;2023-02-01T11:19:23;9.05;;;2.17;;
71087;SDS011;58747;50.674;4.616;2023-02-01T11:21:52;9.90;;;2.53;;
71087;SDS011;58747;50.674;4.616;2023-02-01T11:26:45;8.93;;;3.40;;
71087;SDS011;58747;50.674;4.616;2023-02-01T11:29:11;9.63;;;3.10;;
71087;SDS011;58747;50.674;4.616;2023-02-01T11:31:42;15.85;;;4.00;;
71087;SDS011;58747;50.674;4.616;2023-02-01T11:34:13;13.32;;;3.15;;
71087;SDS011;58747;50.674;4.616;2023-02-01T11:36:40;14.23;;;2.72;;
71087;SDS011;58747;50.674;4.616;2023-02-01T11:39:08;10.03;;;2.60;;
71087;SDS011;58747;50.674;4.616;2023-02-01T11:44:36;16.40;;;4.13;;
71087;SDS011;58747;50.674;4.616;2023-02-01T11:47:23;14.23;;;3.03;;
71087;SDS011;58747;50.674;4.616;2023-02-01T11:49:54;7.85;;;3.50;;
71087;SDS011;58747;50.674;4.616;2023-02-01T12:16:59;4.45;;;2.20;;
71087;SDS011;58747;50.674;4.616;2023-02-01T12:22:39;8.30;;;1.98;;
71087;SDS011;58747;50.674;4.616;2023-02-01T12:36:07;6.30;;;1.80;;
71087;SDS011;58747;50.674;4.616;2023-02-01T12:44:39;6.47;;;1.48;;
71087;SDS011;58747;50.674;4.616;2023-02-01T12:47:14;11.53;;;2.20;;
71087;SDS011;58747;50.674;4.616;2023-02-01T12:50:06;6.60;;;1.40;;
71087;SDS011;58747;50.674;4.616;2023-02-01T12:52:49;10.45;;;2.35;;
71087;SDS011;58747;50.674;4.616;2023-02-01T12:55:22;7.03;;;1.80;;
71087;SDS011;58747;50.674;4.616;2023-02-01T12:58:13;6.70;;;2.25;;
71087;SDS011;58747;50.674;4.616;2023-02-01T13:00:57;6.17;;;1.90;;
71087;SDS011;58747;50.674;4.616;2023-02-01T13:03:29;9.98;;;2.28;;
71087;SDS011;58747;50.674;4.616;2023-02-01T13:06:14;4.22;;;1.75;;
71087;SDS011;58747;50.674;4.616;2023-02-01T13:08:48;4.15;;;1.63;;
71087;SDS011;58747;50.674;4.616;2023-02-01T13:11:26;7.97;;;2.03;;
71087;SDS011;58747;50.674;4.616;2023-02-01T13:17:05;4.53;;;1.25;;
71087;SDS011;58747;50.674;4.616;2023-02-01T13:19:55;7.70;;;1.63;;
71087;SDS011;58747;50.674;4.616;2023-02-01T13:22:43;7.97;;;1.85;;
71087;SDS011;58747;50.674;4.616;2023-02-01T13:28:00;9.10;;;1.50;;
71087;SDS011;58747;50.674;4.616;2023-02-01T13:30:35;6.07;;;1.83;;
71087;SDS011;58747;50.674;4.616;2023-02-01T13:44:58;4.45;;;0.98;;
71087;SDS011;58747;50.674;4.616;2023-02-01T13:50:04;9.18;;;2.15;;
71087;SDS011;58747;50.674;4.616;2023-02-01T13:55:37;5.27;;;2.00;;
71087;SDS011;58747;50.674;4.616;2023-02-01T13:58:50;2.95;;;1.60;;
71087;SDS011;58747;50.674;4.616;2023-02-01T14:21:54;5.00;;;1.33;;
71087;SDS011;58747;50.674;4.616;2023-02-01T14:24:26;5.90;;;1.95;;
71087;SDS011;58747;50.674;4.616;2023-02-01T14:26:54;3.43;;;2.00;;
71087;SDS011;58747;50.674;4.616;2023-02-01T14:29:25;11.25;;;1.98;;
71087;SDS011;58747;50.674;4.616;2023-02-01T14:34:49;8.18;;;2.42;;
71087;SDS011;58747;50.674;4.616;2023-02-01T14:42:18;9.52;;;2.00;;
71087;SDS011;58747;50.674;4.616;2023-02-01T14:44:54;8.93;;;2.00;;
71087;SDS011;58747;50.674;4.616;2023-02-01T14:52:22;8.68;;;2.08;;
71087;SDS011;58747;50.674;4.616;2023-02-01T14:55:02;6.32;;;2.03;;
71087;SDS011;58747;50.674;4.616;2023-02-01T14:57:31;8.07;;;1.48;;
71087;SDS011;58747;50.674;4.616;2023-02-01T15:00:05;6.28;;;2.03;;
71087;SDS011;58747;50.674;4.616;2023-02-01T15:02:39;13.93;;;2.97;;
71087;SDS011;58747;50.674;4.616;2023-02-01T15:05:16;13.98;;;2.40;;
71087;SDS011;58747;50.674;4.616;2023-02-01T15:07:48;4.85;;;1.50;;
71087;SDS011;58747;50.674;4.616;2023-02-01T15:10:15;4.82;;;2.35;;
71087;SDS011;58747;50.674;4.616;2023-02-01T15:12:45;8.68;;;2.05;;
71087;SDS011;58747;50.674;4.616;2023-02-01T15:15:20;11.33;;;2.47;;
71087;SDS011;58747;50.674;4.616;2023-02-01T15:17:49;7.80;;;2.25;;
71087;SDS011;58747;50.674;4.616;2023-02-01T15:20:26;9.80;;;2.40;;
71087;SDS011;58747;50.674;4.616;2023-02-01T15:22:57;9.25;;;2.47;;
71087;SDS011;58747;50.674;4.616;2023-02-01T15:25:28;10.25;;;2.05;;
71087;SDS011;58747;50.674;4.616;2023-02-01T15:27:55;14.67;;;4.17;;
71087;SDS011;58747;50.674;4.616;2023-02-01T15:32:48;8.43;;;2.72;;
71087;SDS011;58747;50.674;4.616;2023-02-01T15:43:24;8.30;;;1.90;;
71087;SDS011;58747;50.674;4.616;2023-02-01T15:45:50;6.38;;;1.92;;
71087;SDS011;58747;50.674;4.616;2023-02-01T15:48:20;7.30;;;1.77;;
71087;SDS011;58747;50.674;4.616;2023-02-01T15:50:47;6.90;;;1.70;;
71087;SDS011;58747;50.674;4.616;2023-02-01T15:53:15;6.73;;;1.27;;
71087;SDS011;58747;50.674;4.616;2023-02-01T15:55:45;7.95;;;1.73;;
71087;SDS011;58747;50.674;4.616;2023-02-01T15:58:22;13.20;;;2.67;;
71087;SDS011;58747;50.674;4.616;2023-02-01T16:00:50;4.85;;;1.58;;
71087;SDS011;58747;50.674;4.616;2023-02-01T16:03:28;7.47;;;2.15;;
71087;SDS011;58747;50.674;4.616;2023-02-01T16:06:07;6.73;;;1.93;;
71087;SDS011;58747;50.674;4.616;2023-02-01T16:08:34;8.77;;;3.05;;
71087;SDS011;58747;50.674;4.616;2023-02-01T16:13:33;7.40;;;2.17;;
71087;SDS011;58747;50.674;4.616;2023-02-01T16:15:58;5.63;;;2.70;;
71087;SDS011;58747;50.674;4.616;2023-02-01T16:18:24;6.67;;;1.90;;
71087;SDS011;58747;50.674;4.616;2023-02-01T16:20:49;10.70;;;2.22;;
71087;SDS011;58747;50.674;4.616;2023-02-01T16:23:15;6.53;;;1.80;;
71087;SDS011;58747;50.674;4.616;2023-02-01T16:25:40;7.97;;;2.70;;
71087;SDS011;58747;50.674;4.616;2023-02-01T16:28:06;7.70;;;2.47;;
71087;SDS011;58747;50.674;4.616;2023-02-01T16:30:31;9.98;;;2.20;;
71087;SDS011;58747;50.674;4.616;2023-02-01T16:32:58;7.07;;;1.90;;
71087;SDS011;58747;50.674;4.616;2023-02-01T16:35:28;10.50;;;2.25;;
71087;SDS011;58747;50.674;4.616;2023-02-01T16:38:00;7.05;;;2.20;;
71087;SDS011;58747;50.674;4.616;2023-02-01T16:40:36;3.75;;;1.10;;
71087;SDS011;58747;50.674;4.616;2023-02-01T16:43:07;9.13;;;2.10;;
71087;SDS011;58747;50.674;4.616;2023-02-01T16:45:36;7.10;;;2.47;;
71087;SDS011;58747;50.674;4.616;2023-02-01T16:48:02;11.98;;;1.75;;
71087;SDS011;58747;50.674;4.616;2023-02-01T16:50:29;9.90;;;3.30;;
71087;SDS011;58747;50.674;4.616;2023-02-01T16:52:57;8.20;;;2.85;;
71087;SDS011;58747;50.674;4.616;2023-02-01T16:55:23;5.83;;;2.20;;
71087;SDS011;58747;50.674;4.616;2023-02-01T16:57:48;9.23;;;2.35;;
71087;SDS011;58747;50.674;4.616;2023-02-01T17:00:14;17.03;;;6.03;;
71087;SDS011;58747;50.674;4.616;2023-02-01T17:02:44;11.60;;;2.75;;
71087;SDS011;58747;50.674;4.616;2023-02-01T17:05:10;15.93;;;3.77;;
71087;SDS011;58747;50.674;4.616;2023-02-01T17:07:36;10.52;;;3.15;;
71087;SDS011;58747;50.674;4.616;2023-02-01T17:10:04;9.63;;;3.00;;
71087;SDS011;58747;50.674;4.616;2023-02-01T17:12:31;13.55;;;3.15;;
71087;SDS011;58747;50.674;4.616;2023-02-01T17:14:57;7.20;;;1.98;;
71087;SDS011;58747;50.674;4.616;2023-02-01T17:17:25;12.93;;;3.63;;
71087;SDS011;58747;50.674;4.616;2023-02-01T17:19:57;8.20;;;2.30;;
71087;SDS011;58747;50.674;4.616;2023-02-01T17:22:22;12.40;;;3.63;;
71087;SDS011;58747;50.674;4.616;2023-02-01T17:24:48;16.67;;;2.83;;
71087;SDS011;58747;50.674;4.616;2023-02-01T17:27:14;11.18;;;3.63;;
71087;SDS011;58747;50.674;4.616;2023-02-01T17:29:41;9.77;;;4.45;;
71087;SDS011;58747;50.674;4.616;2023-02-01T17:32:09;9.07;;;2.87;;
71087;SDS011;58747;50.674;4.616;2023-02-01T17:34:48;12.80;;;3.92;;
71087;SDS011;58747;50.674;4.616;2023-02-01T17:37:30;8.87;;;3.77;;
71087;SDS011;58747;50.674;4.616;2023-02-01T17:39:57;13.95;;;3.65;;
71087;SDS011;58747;50.674;4.616;2023-02-01T17:42:23;13.97;;;3.23;;
71087;SDS011;58747;50.674;4.616;2023-02-01T17:44:55;8.55;;;2.25;;